sensor_id;sensor_type;location;lat;lon;timestamp;P1;durP1;ratioP1;P2;durP2;ratioP2
33814;SDS011;20121;51.910;8.406;2023-05-28T00:00:06;4.97;;;2.30;;
33814;SDS011;20121;51.910;8.406;2023-05-28T00:02:33;5.13;;;2.63;;
33814;SDS011;20121;51.910;8.406;2023-05-28T00:04:59;3.33;;;2.17;;
33814;SDS011;20121;51.910;8.406;2023-05-28T00:07:25;1.92;;;1.73;;
33814;SDS011;20121;51.910;8.406;2023-05-28T00:09:54;7.72;;;2.63;;
33814;SDS011;20121;51.910;8.406;2023-05-28T00:12:20;4.55;;;3.00;;
33814;SDS011;20121;51.910;8.406;2023-05-28T00:14:46;5.18;;;2.65;;
33814;SDS011;20121;51.910;8.406;2023-05-28T00:17:13;2.33;;;2.13;;
33814;SDS011;20121;51.910;8.406;2023-05-28T00:19:39;3.15;;;2.47;;
33814;SDS011;20121;51.910;8.406;2023-05-28T00:22:05;3.35;;;2.25;;
33814;SDS011;20121;51.910;8.406;2023-05-28T00:24:30;2.57;;;1.57;;
33814;SDS011;20121;51.910;8.406;2023-05-28T00:26:56;3.87;;;2.33;;
33814;SDS011;20121;51.910;8.406;2023-05-28T00:29:22;2.63;;;1.90;;
33814;SDS011;20121;51.910;8.406;2023-05-28T00:31:49;6.70;;;2.17;;
33814;SDS011;20121;51.910;8.406;2023-05-28T00:34:16;2.00;;;1.70;;
33814;SDS011;20121;51.910;8.406;2023-05-28T00:36:41;1.77;;;1.63;;
33814;SDS011;20121;51.910;8.406;2023-05-28T00:39:07;4.63;;;1.93;;
33814;SDS011;20121;51.910;8.406;2023-05-28T00:41:33;5.17;;;2.23;;
33814;SDS011;20121;51.910;8.406;2023-05-28T00:44:01;5.97;;;1.95;;
33814;SDS011;20121;51.910;8.406;2023-05-28T00:46:28;2.13;;;1.60;;
33814;SDS011;20121;51.910;8.406;2023-05-28T00:48:54;2.45;;;1.85;;
33814;SDS011;20121;51.910;8.406;2023-05-28T00:51:20;2.80;;;1.90;;
33814;SDS011;20121;51.910;8.406;2023-05-28T00:53:45;2.10;;;1.70;;
33814;SDS011;20121;51.910;8.406;2023-05-28T00:56:11;2.60;;;1.90;;
33814;SDS011;20121;51.910;8.406;2023-05-28T00:58:38;3.85;;;2.58;;
33814;SDS011;20121;51.910;8.406;2023-05-28T01:01:08;2.15;;;1.95;;
33814;SDS011;20121;51.910;8.406;2023-05-28T01:03:35;4.72;;;2.30;;
33814;SDS011;20121;51.910;8.406;2023-05-28T01:06:07;3.15;;;1.67;;
33814;SDS011;20121;51.910;8.406;2023-05-28T01:08:36;2.38;;;2.17;;
33814;SDS011;20121;51.910;8.406;2023-05-28T01:11:03;2.05;;;1.70;;
33814;SDS011;20121;51.910;8.406;2023-05-28T01:13:30;5.10;;;1.75;;
33814;SDS011;20121;51.910;8.406;2023-05-28T01:15:56;2.72;;;1.83;;
33814;SDS011;20121;51.910;8.406;2023-05-28T01:18:23;2.20;;;1.98;;
33814;SDS011;20121;51.910;8.406;2023-05-28T01:20:49;2.17;;;1.98;;
33814;SDS011;20121;51.910;8.406;2023-05-28T01:23:16;2.67;;;1.80;;
33814;SDS011;20121;51.910;8.406;2023-05-28T01:25:48;2.80;;;2.30;;
33814;SDS011;20121;51.910;8.406;2023-05-28T01:28:16;3.38;;;2.13;;
33814;SDS011;20121;51.910;8.406;2023-05-28T01:30:42;4.50;;;2.35;;
33814;SDS011;20121;51.910;8.406;2023-05-28T01:33:11;1.73;;;1.63;;
33814;SDS011;20121;51.910;8.406;2023-05-28T01:35:38;2.75;;;2.10;;
33814;SDS011;20121;51.910;8.406;2023-05-28T01:38:04;2.38;;;2.03;;
33814;SDS011;20121;51.910;8.406;2023-05-28T01:40:31;4.65;;;2.42;;
33814;SDS011;20121;51.910;8.406;2023-05-28T01:42:58;3.97;;;1.75;;
33814;SDS011;20121;51.910;8.406;2023-05-28T01:45:26;4.03;;;2.25;;
33814;SDS011;20121;51.910;8.406;2023-05-28T01:47:53;1.88;;;1.65;;
33814;SDS011;20121;51.910;8.406;2023-05-28T01:50:19;5.65;;;2.10;;
33814;SDS011;20121;51.910;8.406;2023-05-28T01:52:45;3.38;;;1.70;;
33814;SDS011;20121;51.910;8.406;2023-05-28T01:55:11;2.40;;;1.53;;
33814;SDS011;20121;51.910;8.406;2023-05-28T01:57:38;2.58;;;2.00;;
33814;SDS011;20121;51.910;8.406;2023-05-28T02:00:05;2.50;;;2.30;;
33814;SDS011;20121;51.910;8.406;2023-05-28T02:02:33;2.83;;;2.47;;
33814;SDS011;20121;51.910;8.406;2023-05-28T02:04:59;2.13;;;1.40;;
33814;SDS011;20121;51.910;8.406;2023-05-28T02:07:25;2.25;;;1.85;;
33814;SDS011;20121;51.910;8.406;2023-05-28T02:09:51;2.70;;;1.90;;
33814;SDS011;20121;51.910;8.406;2023-05-28T02:12:17;1.90;;;1.67;;
33814;SDS011;20121;51.910;8.406;2023-05-28T02:14:46;2.73;;;1.87;;
33814;SDS011;20121;51.910;8.406;2023-05-28T02:17:12;1.50;;;1.40;;
33814;SDS011;20121;51.910;8.406;2023-05-28T02:19:37;2.10;;;1.70;;
33814;SDS011;20121;51.910;8.406;2023-05-28T02:22:03;2.57;;;1.90;;
33814;SDS011;20121;51.910;8.406;2023-05-28T02:24:35;8.35;;;2.35;;
33814;SDS011;20121;51.910;8.406;2023-05-28T02:27:01;2.97;;;1.70;;
33814;SDS011;20121;51.910;8.406;2023-05-28T02:29:28;4.93;;;2.08;;
33814;SDS011;20121;51.910;8.406;2023-05-28T02:31:54;2.20;;;1.93;;
33814;SDS011;20121;51.910;8.406;2023-05-28T02:34:20;7.30;;;2.60;;
33814;SDS011;20121;51.910;8.406;2023-05-28T02:36:45;5.73;;;1.60;;
33814;SDS011;20121;51.910;8.406;2023-05-28T02:39:11;3.83;;;2.23;;
33814;SDS011;20121;51.910;8.406;2023-05-28T02:41:37;2.70;;;2.10;;
33814;SDS011;20121;51.910;8.406;2023-05-28T02:44:02;3.97;;;2.17;;
33814;SDS011;20121;51.910;8.406;2023-05-28T02:46:28;1.90;;;1.67;;
33814;SDS011;20121;51.910;8.406;2023-05-28T02:48:53;1.83;;;1.53;;
33814;SDS011;20121;51.910;8.406;2023-05-28T02:51:19;4.17;;;2.10;;
33814;SDS011;20121;51.910;8.406;2023-05-28T02:53:45;7.33;;;1.70;;
33814;SDS011;20121;51.910;8.406;2023-05-28T02:56:10;2.60;;;1.33;;
33814;SDS011;20121;51.910;8.406;2023-05-28T02:58:36;3.17;;;1.93;;
33814;SDS011;20121;51.910;8.406;2023-05-28T03:01:02;2.30;;;1.80;;
33814;SDS011;20121;51.910;8.406;2023-05-28T03:03:28;2.92;;;2.13;;
33814;SDS011;20121;51.910;8.406;2023-05-28T03:05:54;3.27;;;2.10;;
33814;SDS011;20121;51.910;8.406;2023-05-28T03:08:20;1.53;;;1.40;;
33814;SDS011;20121;51.910;8.406;2023-05-28T03:10:45;3.23;;;1.10;;
33814;SDS011;20121;51.910;8.406;2023-05-28T03:13:11;1.77;;;1.37;;
33814;SDS011;20121;51.910;8.406;2023-05-28T03:15:37;5.00;;;2.50;;
33814;SDS011;20121;51.910;8.406;2023-05-28T03:18:02;2.37;;;2.17;;
33814;SDS011;20121;51.910;8.406;2023-05-28T03:20:29;3.67;;;2.05;;
33814;SDS011;20121;51.910;8.406;2023-05-28T03:22:58;5.72;;;2.75;;
33814;SDS011;20121;51.910;8.406;2023-05-28T03:25:24;3.35;;;2.53;;
33814;SDS011;20121;51.910;8.406;2023-05-28T03:27:50;4.22;;;2.58;;
33814;SDS011;20121;51.910;8.406;2023-05-28T03:30:17;3.03;;;2.03;;
33814;SDS011;20121;51.910;8.406;2023-05-28T03:32:42;2.80;;;2.20;;
33814;SDS011;20121;51.910;8.406;2023-05-28T03:35:08;2.70;;;1.70;;
33814;SDS011;20121;51.910;8.406;2023-05-28T03:37:34;3.77;;;1.93;;
33814;SDS011;20121;51.910;8.406;2023-05-28T03:39:59;2.27;;;1.63;;
33814;SDS011;20121;51.910;8.406;2023-05-28T03:42:25;2.40;;;2.00;;
33814;SDS011;20121;51.910;8.406;2023-05-28T03:44:51;3.17;;;2.87;;
33814;SDS011;20121;51.910;8.406;2023-05-28T03:47:16;2.13;;;1.70;;
33814;SDS011;20121;51.910;8.406;2023-05-28T03:49:42;2.80;;;1.97;;
33814;SDS011;20121;51.910;8.406;2023-05-28T03:52:08;3.00;;;2.33;;
33814;SDS011;20121;51.910;8.406;2023-05-28T03:54:34;1.95;;;1.27;;
33814;SDS011;20121;51.910;8.406;2023-05-28T03:57:00;8.38;;;2.55;;
33814;SDS011;20121;51.910;8.406;2023-05-28T03:59:26;2.17;;;1.77;;
33814;SDS011;20121;51.910;8.406;2023-05-28T04:01:52;2.05;;;1.85;;
33814;SDS011;20121;51.910;8.406;2023-05-28T04:04:18;2.90;;;1.67;;
33814;SDS011;20121;51.910;8.406;2023-05-28T04:06:43;2.57;;;2.20;;
33814;SDS011;20121;51.910;8.406;2023-05-28T04:09:09;1.80;;;1.70;;
33814;SDS011;20121;51.910;8.406;2023-05-28T04:11:35;1.40;;;1.30;;
33814;SDS011;20121;51.910;8.406;2023-05-28T04:14:02;1.90;;;1.65;;
33814;SDS011;20121;51.910;8.406;2023-05-28T04:16:28;3.47;;;1.83;;
33814;SDS011;20121;51.910;8.406;2023-05-28T04:18:54;3.23;;;2.17;;
33814;SDS011;20121;51.910;8.406;2023-05-28T04:21:21;2.95;;;2.05;;
33814;SDS011;20121;51.910;8.406;2023-05-28T04:23:48;2.47;;;1.70;;
33814;SDS011;20121;51.910;8.406;2023-05-28T04:26:13;2.03;;;1.83;;
33814;SDS011;20121;51.910;8.406;2023-05-28T04:28:40;1.77;;;1.67;;
33814;SDS011;20121;51.910;8.406;2023-05-28T04:31:06;2.95;;;2.05;;
33814;SDS011;20121;51.910;8.406;2023-05-28T04:33:32;2.53;;;2.33;;
33814;SDS011;20121;51.910;8.406;2023-05-28T04:35:58;2.37;;;2.17;;
33814;SDS011;20121;51.910;8.406;2023-05-28T04:38:25;4.38;;;2.97;;
33814;SDS011;20121;51.910;8.406;2023-05-28T04:40:56;2.53;;;2.00;;
33814;SDS011;20121;51.910;8.406;2023-05-28T04:43:23;3.25;;;2.95;;
33814;SDS011;20121;51.910;8.406;2023-05-28T04:45:48;8.03;;;3.03;;
33814;SDS011;20121;51.910;8.406;2023-05-28T04:48:14;1.90;;;1.80;;
33814;SDS011;20121;51.910;8.406;2023-05-28T04:50:40;3.10;;;2.40;;
33814;SDS011;20121;51.910;8.406;2023-05-28T04:53:06;2.60;;;2.10;;
33814;SDS011;20121;51.910;8.406;2023-05-28T04:55:32;3.20;;;2.20;;
33814;SDS011;20121;51.910;8.406;2023-05-28T04:57:57;3.63;;;2.07;;
33814;SDS011;20121;51.910;8.406;2023-05-28T05:00:23;3.63;;;2.77;;
33814;SDS011;20121;51.910;8.406;2023-05-28T05:02:51;5.57;;;3.15;;
33814;SDS011;20121;51.910;8.406;2023-05-28T05:05:18;5.25;;;3.67;;
33814;SDS011;20121;51.910;8.406;2023-05-28T05:07:44;4.35;;;3.35;;
33814;SDS011;20121;51.910;8.406;2023-05-28T05:10:11;2.70;;;2.50;;
33814;SDS011;20121;51.910;8.406;2023-05-28T05:12:37;4.77;;;2.60;;
33814;SDS011;20121;51.910;8.406;2023-05-28T05:15:03;5.18;;;2.08;;
33814;SDS011;20121;51.910;8.406;2023-05-28T05:17:30;2.30;;;2.10;;
33814;SDS011;20121;51.910;8.406;2023-05-28T05:19:57;3.90;;;1.80;;
33814;SDS011;20121;51.910;8.406;2023-05-28T05:22:25;2.92;;;2.63;;
33814;SDS011;20121;51.910;8.406;2023-05-28T05:24:51;3.08;;;2.08;;
33814;SDS011;20121;51.910;8.406;2023-05-28T05:27:17;4.67;;;2.40;;
33814;SDS011;20121;51.910;8.406;2023-05-28T05:29:42;2.90;;;1.97;;
33814;SDS011;20121;51.910;8.406;2023-05-28T05:32:10;8.13;;;2.50;;
33814;SDS011;20121;51.910;8.406;2023-05-28T05:34:36;2.50;;;1.90;;
33814;SDS011;20121;51.910;8.406;2023-05-28T05:37:02;6.07;;;2.10;;
33814;SDS011;20121;51.910;8.406;2023-05-28T05:39:28;5.40;;;2.42;;
33814;SDS011;20121;51.910;8.406;2023-05-28T05:41:53;4.00;;;1.97;;
33814;SDS011;20121;51.910;8.406;2023-05-28T05:44:19;5.80;;;2.77;;
33814;SDS011;20121;51.910;8.406;2023-05-28T05:46:45;2.28;;;1.67;;
33814;SDS011;20121;51.910;8.406;2023-05-28T05:49:20;2.80;;;2.23;;
33814;SDS011;20121;51.910;8.406;2023-05-28T05:51:46;2.95;;;2.20;;
33814;SDS011;20121;51.910;8.406;2023-05-28T05:54:13;4.17;;;1.70;;
33814;SDS011;20121;51.910;8.406;2023-05-28T05:56:40;1.40;;;1.30;;
33814;SDS011;20121;51.910;8.406;2023-05-28T05:59:05;2.30;;;1.93;;
33814;SDS011;20121;51.910;8.406;2023-05-28T06:01:31;1.70;;;1.60;;
33814;SDS011;20121;51.910;8.406;2023-05-28T06:03:57;2.70;;;1.83;;
33814;SDS011;20121;51.910;8.406;2023-05-28T06:06:23;3.90;;;2.00;;
33814;SDS011;20121;51.910;8.406;2023-05-28T06:08:48;2.00;;;1.40;;
33814;SDS011;20121;51.910;8.406;2023-05-28T06:11:14;2.80;;;2.00;;
33814;SDS011;20121;51.910;8.406;2023-05-28T06:13:40;2.38;;;1.52;;
33814;SDS011;20121;51.910;8.406;2023-05-28T06:16:06;1.63;;;1.47;;
33814;SDS011;20121;51.910;8.406;2023-05-28T06:18:32;2.37;;;1.73;;
33814;SDS011;20121;51.910;8.406;2023-05-28T06:20:58;2.75;;;1.45;;
33814;SDS011;20121;51.910;8.406;2023-05-28T06:23:24;6.73;;;1.80;;
33814;SDS011;20121;51.910;8.406;2023-05-28T06:25:50;2.97;;;1.40;;
33814;SDS011;20121;51.910;8.406;2023-05-28T06:28:15;3.10;;;1.93;;
33814;SDS011;20121;51.910;8.406;2023-05-28T06:30:41;3.23;;;1.47;;
33814;SDS011;20121;51.910;8.406;2023-05-28T06:33:07;1.80;;;1.63;;
33814;SDS011;20121;51.910;8.406;2023-05-28T06:35:34;4.05;;;1.65;;
33814;SDS011;20121;51.910;8.406;2023-05-28T06:38:00;1.55;;;1.20;;
33814;SDS011;20121;51.910;8.406;2023-05-28T06:40:26;1.33;;;1.23;;
33814;SDS011;20121;51.910;8.406;2023-05-28T06:42:51;2.53;;;1.67;;
33814;SDS011;20121;51.910;8.406;2023-05-28T06:45:17;4.77;;;2.00;;
33814;SDS011;20121;51.910;8.406;2023-05-28T06:47:43;2.65;;;1.73;;
33814;SDS011;20121;51.910;8.406;2023-05-28T06:50:12;10.77;;;1.95;;
33814;SDS011;20121;51.910;8.406;2023-05-28T06:52:38;7.13;;;1.77;;
33814;SDS011;20121;51.910;8.406;2023-05-28T06:55:04;2.27;;;1.40;;
33814;SDS011;20121;51.910;8.406;2023-05-28T06:57:32;2.55;;;1.58;;
33814;SDS011;20121;51.910;8.406;2023-05-28T06:59:58;2.20;;;1.45;;
33814;SDS011;20121;51.910;8.406;2023-05-28T07:02:24;1.70;;;1.23;;
33814;SDS011;20121;51.910;8.406;2023-05-28T07:04:50;1.73;;;1.58;;
33814;SDS011;20121;51.910;8.406;2023-05-28T07:07:16;1.73;;;0.83;;
33814;SDS011;20121;51.910;8.406;2023-05-28T07:09:42;11.43;;;2.00;;
33814;SDS011;20121;51.910;8.406;2023-05-28T07:12:08;1.80;;;1.40;;
33814;SDS011;20121;51.910;8.406;2023-05-28T07:14:34;1.70;;;1.23;;
33814;SDS011;20121;51.910;8.406;2023-05-28T07:16:59;1.87;;;1.77;;
33814;SDS011;20121;51.910;8.406;2023-05-28T07:19:25;4.00;;;1.40;;
33814;SDS011;20121;51.910;8.406;2023-05-28T07:21:51;7.20;;;1.20;;
33814;SDS011;20121;51.910;8.406;2023-05-28T07:24:16;1.30;;;1.17;;
33814;SDS011;20121;51.910;8.406;2023-05-28T07:26:42;13.03;;;1.40;;
33814;SDS011;20121;51.910;8.406;2023-05-28T07:29:07;3.00;;;1.37;;
33814;SDS011;20121;51.910;8.406;2023-05-28T07:31:33;1.33;;;0.97;;
33814;SDS011;20121;51.910;8.406;2023-05-28T07:34:00;1.15;;;0.90;;
33814;SDS011;20121;51.910;8.406;2023-05-28T07:36:26;1.77;;;1.50;;
33814;SDS011;20121;51.910;8.406;2023-05-28T07:38:52;2.40;;;1.37;;
33814;SDS011;20121;51.910;8.406;2023-05-28T07:41:17;2.10;;;0.97;;
33814;SDS011;20121;51.910;8.406;2023-05-28T07:43:43;2.00;;;1.17;;
33814;SDS011;20121;51.910;8.406;2023-05-28T07:46:08;1.00;;;0.90;;
33814;SDS011;20121;51.910;8.406;2023-05-28T07:48:34;4.20;;;1.40;;
33814;SDS011;20121;51.910;8.406;2023-05-28T07:51:00;1.10;;;1.00;;
33814;SDS011;20121;51.910;8.406;2023-05-28T07:53:25;1.20;;;1.10;;
33814;SDS011;20121;51.910;8.406;2023-05-28T07:55:51;2.10;;;1.20;;
33814;SDS011;20121;51.910;8.406;2023-05-28T07:58:18;2.75;;;0.93;;
33814;SDS011;20121;51.910;8.406;2023-05-28T08:00:44;1.87;;;0.90;;
33814;SDS011;20121;51.910;8.406;2023-05-28T08:03:09;0.90;;;0.80;;
33814;SDS011;20121;51.910;8.406;2023-05-28T08:05:36;1.87;;;1.10;;
33814;SDS011;20121;51.910;8.406;2023-05-28T08:08:02;2.30;;;1.00;;
33814;SDS011;20121;51.910;8.406;2023-05-28T08:10:28;3.43;;;1.20;;
33814;SDS011;20121;51.910;8.406;2023-05-28T08:12:53;1.10;;;1.00;;
33814;SDS011;20121;51.910;8.406;2023-05-28T08:15:19;1.17;;;1.07;;
33814;SDS011;20121;51.910;8.406;2023-05-28T08:17:45;1.07;;;0.80;;
33814;SDS011;20121;51.910;8.406;2023-05-28T08:20:10;1.60;;;1.20;;
33814;SDS011;20121;51.910;8.406;2023-05-28T08:22:36;1.63;;;1.10;;
33814;SDS011;20121;51.910;8.406;2023-05-28T08:25:02;1.10;;;1.00;;
33814;SDS011;20121;51.910;8.406;2023-05-28T08:27:28;0.98;;;0.90;;
33814;SDS011;20121;51.910;8.406;2023-05-28T08:29:55;2.95;;;1.35;;
33814;SDS011;20121;51.910;8.406;2023-05-28T08:32:21;3.80;;;1.53;;
33814;SDS011;20121;51.910;8.406;2023-05-28T08:34:46;3.87;;;1.40;;
33814;SDS011;20121;51.910;8.406;2023-05-28T08:37:12;1.53;;;1.27;;
33814;SDS011;20121;51.910;8.406;2023-05-28T08:39:38;1.67;;;1.10;;
33814;SDS011;20121;51.910;8.406;2023-05-28T08:42:04;1.97;;;1.37;;
33814;SDS011;20121;51.910;8.406;2023-05-28T08:44:30;1.85;;;1.30;;
33814;SDS011;20121;51.910;8.406;2023-05-28T08:46:56;4.07;;;1.70;;
33814;SDS011;20121;51.910;8.406;2023-05-28T08:49:23;1.67;;;1.30;;
33814;SDS011;20121;51.910;8.406;2023-05-28T08:51:55;1.98;;;1.15;;
33814;SDS011;20121;51.910;8.406;2023-05-28T08:54:23;6.47;;;1.25;;
33814;SDS011;20121;51.910;8.406;2023-05-28T08:56:49;1.30;;;1.10;;
33814;SDS011;20121;51.910;8.406;2023-05-28T08:59:15;0.80;;;0.70;;
33814;SDS011;20121;51.910;8.406;2023-05-28T09:01:41;2.53;;;0.90;;
33814;SDS011;20121;51.910;8.406;2023-05-28T09:04:07;1.93;;;1.17;;
33814;SDS011;20121;51.910;8.406;2023-05-28T09:06:35;1.03;;;0.93;;
33814;SDS011;20121;51.910;8.406;2023-05-28T09:09:02;1.25;;;1.05;;
33814;SDS011;20121;51.910;8.406;2023-05-28T09:11:29;2.03;;;1.20;;
33814;SDS011;20121;51.910;8.406;2023-05-28T09:13:54;1.20;;;1.10;;
33814;SDS011;20121;51.910;8.406;2023-05-28T09:16:21;4.40;;;1.30;;
33814;SDS011;20121;51.910;8.406;2023-05-28T09:18:50;5.32;;;1.70;;
33814;SDS011;20121;51.910;8.406;2023-05-28T09:21:20;1.65;;;1.55;;
33814;SDS011;20121;51.910;8.406;2023-05-28T09:23:49;2.38;;;1.33;;
33814;SDS011;20121;51.910;8.406;2023-05-28T09:26:16;1.83;;;1.38;;
33814;SDS011;20121;51.910;8.406;2023-05-28T09:28:44;0.75;;;0.70;;
33814;SDS011;20121;51.910;8.406;2023-05-28T09:31:10;2.23;;;1.10;;
33814;SDS011;20121;51.910;8.406;2023-05-28T09:33:42;1.93;;;1.53;;
33814;SDS011;20121;51.910;8.406;2023-05-28T09:36:10;3.08;;;1.35;;
33814;SDS011;20121;51.910;8.406;2023-05-28T09:38:39;1.47;;;1.37;;
33814;SDS011;20121;51.910;8.406;2023-05-28T09:41:22;0.90;;;0.80;;
33814;SDS011;20121;51.910;8.406;2023-05-28T09:43:58;2.97;;;1.10;;
33814;SDS011;20121;51.910;8.406;2023-05-28T09:46:26;1.30;;;1.08;;
33814;SDS011;20121;51.910;8.406;2023-05-28T09:48:53;1.65;;;1.00;;
33814;SDS011;20121;51.910;8.406;2023-05-28T09:51:19;6.90;;;1.17;;
33814;SDS011;20121;51.910;8.406;2023-05-28T09:53:48;1.20;;;1.10;;
33814;SDS011;20121;51.910;8.406;2023-05-28T09:56:20;1.40;;;1.30;;
33814;SDS011;20121;51.910;8.406;2023-05-28T09:58:47;1.10;;;0.80;;
33814;SDS011;20121;51.910;8.406;2023-05-28T10:01:17;2.53;;;1.30;;
33814;SDS011;20121;51.910;8.406;2023-05-28T10:03:52;1.30;;;0.88;;
33814;SDS011;20121;51.910;8.406;2023-05-28T10:06:28;2.15;;;1.33;;
33814;SDS011;20121;51.910;8.406;2023-05-28T10:08:55;1.30;;;1.20;;
33814;SDS011;20121;51.910;8.406;2023-05-28T10:11:27;1.40;;;1.30;;
33814;SDS011;20121;51.910;8.406;2023-05-28T10:13:58;1.38;;;1.00;;
33814;SDS011;20121;51.910;8.406;2023-05-28T10:16:25;5.43;;;1.73;;
33814;SDS011;20121;51.910;8.406;2023-05-28T10:18:51;1.45;;;1.35;;
33814;SDS011;20121;51.910;8.406;2023-05-28T10:21:18;1.60;;;1.10;;
33814;SDS011;20121;51.910;8.406;2023-05-28T10:23:46;1.10;;;1.00;;
33814;SDS011;20121;51.910;8.406;2023-05-28T10:26:13;1.20;;;1.10;;
33814;SDS011;20121;51.910;8.406;2023-05-28T10:28:39;2.67;;;1.35;;
33814;SDS011;20121;51.910;8.406;2023-05-28T10:31:07;1.55;;;1.00;;
33814;SDS011;20121;51.910;8.406;2023-05-28T10:33:39;2.50;;;1.38;;
33814;SDS011;20121;51.910;8.406;2023-05-28T10:36:16;1.08;;;0.98;;
33814;SDS011;20121;51.910;8.406;2023-05-28T10:38:42;1.23;;;0.85;;
33814;SDS011;20121;51.910;8.406;2023-05-28T10:41:18;2.25;;;1.10;;
33814;SDS011;20121;51.910;8.406;2023-05-28T10:43:49;1.70;;;1.52;;
33814;SDS011;20121;51.910;8.406;2023-05-28T10:46:19;1.02;;;0.93;;
33814;SDS011;20121;51.910;8.406;2023-05-28T10:59:52;2.05;;;1.60;;
33814;SDS011;20121;51.910;8.406;2023-05-28T11:02:30;2.47;;;1.55;;
33814;SDS011;20121;51.910;8.406;2023-05-28T11:04:59;2.28;;;1.33;;
33814;SDS011;20121;51.910;8.406;2023-05-28T11:07:33;1.30;;;1.20;;
33814;SDS011;20121;51.910;8.406;2023-05-28T11:10:00;1.80;;;1.30;;
33814;SDS011;20121;51.910;8.406;2023-05-28T11:12:28;1.60;;;1.30;;
33814;SDS011;20121;51.910;8.406;2023-05-28T11:14:55;5.68;;;1.60;;
33814;SDS011;20121;51.910;8.406;2023-05-28T11:17:21;1.38;;;1.02;;
33814;SDS011;20121;51.910;8.406;2023-05-28T11:19:48;2.50;;;1.43;;
33814;SDS011;20121;51.910;8.406;2023-05-28T11:22:15;2.22;;;1.35;;
33814;SDS011;20121;51.910;8.406;2023-05-28T11:25:15;3.30;;;1.63;;
33814;SDS011;20121;51.910;8.406;2023-05-28T11:27:35;3.00;;;1.52;;
33814;SDS011;20121;51.910;8.406;2023-05-28T11:32:36;1.55;;;1.45;;
33814;SDS011;20121;51.910;8.406;2023-05-28T11:35:02;2.13;;;1.30;;
33814;SDS011;20121;51.910;8.406;2023-05-28T11:37:32;2.05;;;1.40;;
33814;SDS011;20121;51.910;8.406;2023-05-28T11:40:02;1.67;;;1.20;;
33814;SDS011;20121;51.910;8.406;2023-05-28T11:42:36;1.63;;;1.45;;
33814;SDS011;20121;51.910;8.406;2023-05-28T11:45:02;1.90;;;1.50;;
33814;SDS011;20121;51.910;8.406;2023-05-28T11:47:31;3.00;;;1.00;;
33814;SDS011;20121;51.910;8.406;2023-05-28T11:50:13;1.83;;;1.50;;
33814;SDS011;20121;51.910;8.406;2023-05-28T11:52:40;1.10;;;1.00;;
33814;SDS011;20121;51.910;8.406;2023-05-28T11:55:05;3.00;;;1.60;;
33814;SDS011;20121;51.910;8.406;2023-05-28T11:57:32;2.45;;;1.70;;
33814;SDS011;20121;51.910;8.406;2023-05-28T12:02:49;4.10;;;1.88;;
33814;SDS011;20121;51.910;8.406;2023-05-28T12:05:16;1.83;;;1.17;;
33814;SDS011;20121;51.910;8.406;2023-05-28T12:07:50;1.40;;;1.25;;
33814;SDS011;20121;51.910;8.406;2023-05-28T12:10:20;1.40;;;1.15;;
33814;SDS011;20121;51.910;8.406;2023-05-28T12:12:48;2.83;;;1.25;;
33814;SDS011;20121;51.910;8.406;2023-05-28T12:15:15;1.20;;;1.10;;
33814;SDS011;20121;51.910;8.406;2023-05-28T12:17:42;1.80;;;1.30;;
33814;SDS011;20121;51.910;8.406;2023-05-28T12:22:40;2.30;;;1.30;;
33814;SDS011;20121;51.910;8.406;2023-05-28T12:25:06;1.30;;;1.20;;
33814;SDS011;20121;51.910;8.406;2023-05-28T12:27:33;2.13;;;1.20;;
33814;SDS011;20121;51.910;8.406;2023-05-28T12:29:59;0.90;;;0.88;;
33814;SDS011;20121;51.910;8.406;2023-05-28T12:32:25;1.83;;;1.47;;
33814;SDS011;20121;51.910;8.406;2023-05-28T12:34:51;1.10;;;1.00;;
33814;SDS011;20121;51.910;8.406;2023-05-28T12:37:18;1.70;;;1.60;;
33814;SDS011;20121;51.910;8.406;2023-05-28T12:39:45;1.52;;;1.42;;
33814;SDS011;20121;51.910;8.406;2023-05-28T12:42:11;1.30;;;1.10;;
33814;SDS011;20121;51.910;8.406;2023-05-28T12:44:37;1.53;;;1.43;;
33814;SDS011;20121;51.910;8.406;2023-05-28T12:47:02;1.67;;;0.97;;
33814;SDS011;20121;51.910;8.406;2023-05-28T12:49:28;5.67;;;1.33;;
33814;SDS011;20121;51.910;8.406;2023-05-28T12:51:54;0.97;;;0.80;;
33814;SDS011;20121;51.910;8.406;2023-05-28T12:54:19;2.70;;;1.40;;
33814;SDS011;20121;51.910;8.406;2023-05-28T12:56:45;1.67;;;1.08;;
33814;SDS011;20121;51.910;8.406;2023-05-28T12:59:24;2.90;;;1.47;;
33814;SDS011;20121;51.910;8.406;2023-05-28T13:01:51;1.27;;;1.05;;
33814;SDS011;20121;51.910;8.406;2023-05-28T13:04:16;2.90;;;1.00;;
33814;SDS011;20121;51.910;8.406;2023-05-28T13:06:43;1.73;;;1.10;;
33814;SDS011;20121;51.910;8.406;2023-05-28T13:09:09;1.88;;;1.50;;
33814;SDS011;20121;51.910;8.406;2023-05-28T13:11:37;3.38;;;0.95;;
33814;SDS011;20121;51.910;8.406;2023-05-28T13:14:04;1.13;;;0.90;;
33814;SDS011;20121;51.910;8.406;2023-05-28T13:16:30;1.90;;;0.90;;
33814;SDS011;20121;51.910;8.406;2023-05-28T13:18:55;1.93;;;1.37;;
33814;SDS011;20121;51.910;8.406;2023-05-28T13:21:21;1.40;;;1.30;;
33814;SDS011;20121;51.910;8.406;2023-05-28T13:23:47;1.77;;;1.30;;
33814;SDS011;20121;51.910;8.406;2023-05-28T13:26:13;2.25;;;1.42;;
33814;SDS011;20121;51.910;8.406;2023-05-28T13:28:40;3.33;;;1.38;;
33814;SDS011;20121;51.910;8.406;2023-05-28T13:31:05;1.63;;;1.27;;
33814;SDS011;20121;51.910;8.406;2023-05-28T13:33:31;3.47;;;1.57;;
33814;SDS011;20121;51.910;8.406;2023-05-28T13:35:57;2.80;;;1.40;;
33814;SDS011;20121;51.910;8.406;2023-05-28T13:38:22;1.43;;;1.33;;
33814;SDS011;20121;51.910;8.406;2023-05-28T13:40:48;2.03;;;1.17;;
33814;SDS011;20121;51.910;8.406;2023-05-28T13:43:14;1.90;;;1.50;;
33814;SDS011;20121;51.910;8.406;2023-05-28T13:45:40;4.17;;;1.50;;
33814;SDS011;20121;51.910;8.406;2023-05-28T13:48:06;1.80;;;1.10;;
33814;SDS011;20121;51.910;8.406;2023-05-28T13:50:32;2.75;;;1.85;;
33814;SDS011;20121;51.910;8.406;2023-05-28T13:52:58;1.45;;;1.35;;
33814;SDS011;20121;51.910;8.406;2023-05-28T13:55:24;2.80;;;1.33;;
33814;SDS011;20121;51.910;8.406;2023-05-28T13:57:51;1.20;;;1.10;;
33814;SDS011;20121;51.910;8.406;2023-05-28T14:00:17;1.20;;;1.00;;
33814;SDS011;20121;51.910;8.406;2023-05-28T14:02:43;1.48;;;1.20;;
33814;SDS011;20121;51.910;8.406;2023-05-28T14:05:09;1.45;;;1.00;;
33814;SDS011;20121;51.910;8.406;2023-05-28T14:07:35;1.70;;;1.00;;
33814;SDS011;20121;51.910;8.406;2023-05-28T14:10:02;3.10;;;2.23;;
33814;SDS011;20121;51.910;8.406;2023-05-28T14:12:28;2.35;;;1.02;;
33814;SDS011;20121;51.910;8.406;2023-05-28T14:14:53;1.90;;;1.30;;
33814;SDS011;20121;51.910;8.406;2023-05-28T14:17:19;2.70;;;1.33;;
33814;SDS011;20121;51.910;8.406;2023-05-28T14:19:45;1.53;;;1.10;;
33814;SDS011;20121;51.910;8.406;2023-05-28T14:22:10;2.20;;;1.10;;
33814;SDS011;20121;51.910;8.406;2023-05-28T14:24:36;2.13;;;1.40;;
33814;SDS011;20121;51.910;8.406;2023-05-28T14:27:02;3.87;;;1.70;;
33814;SDS011;20121;51.910;8.406;2023-05-28T14:29:28;6.53;;;1.25;;
33814;SDS011;20121;51.910;8.406;2023-05-28T14:31:54;1.77;;;1.53;;
33814;SDS011;20121;51.910;8.406;2023-05-28T14:34:20;1.97;;;1.20;;
33814;SDS011;20121;51.910;8.406;2023-05-28T14:36:45;2.93;;;1.23;;
33814;SDS011;20121;51.910;8.406;2023-05-28T14:39:11;2.10;;;1.30;;
33814;SDS011;20121;51.910;8.406;2023-05-28T14:41:36;1.53;;;1.43;;
33814;SDS011;20121;51.910;8.406;2023-05-28T14:44:02;1.80;;;1.43;;
33814;SDS011;20121;51.910;8.406;2023-05-28T14:46:28;2.17;;;1.17;;
33814;SDS011;20121;51.910;8.406;2023-05-28T14:48:53;1.27;;;1.00;;
33814;SDS011;20121;51.910;8.406;2023-05-28T14:51:19;4.43;;;1.60;;
33814;SDS011;20121;51.910;8.406;2023-05-28T14:53:44;2.67;;;1.40;;
33814;SDS011;20121;51.910;8.406;2023-05-28T14:56:10;1.67;;;1.03;;
33814;SDS011;20121;51.910;8.406;2023-05-28T14:58:36;2.40;;;1.63;;
33814;SDS011;20121;51.910;8.406;2023-05-28T15:01:01;1.27;;;1.13;;
33814;SDS011;20121;51.910;8.406;2023-05-28T15:03:28;1.60;;;1.10;;